sensor_id;sensor_type;location;lat;lon;timestamp;pressure;altitude;pressure_sealevel;temperature;humidity
49515;BME280;35415;47.870;16.058;2023-06-22T00:52:54;97667.38;;;20.49;100.00
49515;BME280;35415;47.870;16.058;2023-06-22T00:55:49;97655.94;;;20.47;100.00
49515;BME280;35415;47.870;16.058;2023-06-22T00:58:37;97658.19;;;20.45;100.00
49515;BME280;35415;47.870;16.058;2023-06-22T01:57:33;97639.34;;;19.92;100.00
49515;BME280;35415;47.870;16.058;2023-06-22T02:00:07;97641.59;;;19.90;100.00
49515;BME280;35415;47.870;16.058;2023-06-22T02:03:01;97644.16;;;19.86;100.00
49515;BME280;35415;47.870;16.058;2023-06-22T02:05:39;97644.47;;;19.85;100.00
49515;BME280;35415;47.870;16.058;2023-06-22T02:38:15;97637.19;;;19.63;100.00
49515;BME280;35415;47.870;16.058;2023-06-22T02:40:59;97637.50;;;19.61;100.00
49515;BME280;35415;47.870;16.058;2023-06-22T02:43:47;97644.88;;;19.61;100.00
49515;BME280;35415;47.870;16.058;2023-06-22T02:46:20;97645.19;;;19.59;100.00
49515;BME280;35415;47.870;16.058;2023-06-22T02:49:16;97638.94;;;19.59;100.00
49515;BME280;35415;47.870;16.058;2023-06-22T02:52:05;97634.94;;;19.56;100.00
49515;BME280;35415;47.870;16.058;2023-06-22T02:57:23;97634.44;;;19.54;100.00
49515;BME280;35415;47.870;16.058;2023-06-22T03:00:02;97632.31;;;19.51;100.00
49515;BME280;35415;47.870;16.058;2023-06-22T03:02:48;97629.09;;;19.49;100.00
49515;BME280;35415;47.870;16.058;2023-06-22T03:05:49;97633.75;;;19.48;100.00
49515;BME280;35415;47.870;16.058;2023-06-22T04:05:09;97619.47;;;19.12;100.00
49515;BME280;35415;47.870;16.058;2023-06-22T04:07:40;97615.16;;;19.11;100.00
49515;BME280;35415;47.870;16.058;2023-06-22T04:10:07;97595.25;;;19.10;100.00
49515;BME280;35415;47.870;16.058;2023-06-22T04:16:19;97598.78;;;19.11;100.00
49515;BME280;35415;47.870;16.058;2023-06-22T04:29:09;97592.41;;;19.15;100.00
49515;BME280;35415;47.870;16.058;2023-06-22T04:31:36;97593.22;;;19.16;100.00
49515;BME280;35415;47.870;16.058;2023-06-22T04:34:13;97599.16;;;19.18;100.00
49515;BME280;35415;47.870;16.058;2023-06-22T04:36:41;97601.56;;;19.19;100.00
49515;BME280;35415;47.870;16.058;2023-06-22T04:39:10;97593.06;;;19.21;100.00
49515;BME280;35415;47.870;16.058;2023-06-22T04:41:56;97588.41;;;19.21;100.00
49515;BME280;35415;47.870;16.058;2023-06-22T04:44:41;97590.50;;;19.24;100.00
49515;BME280;35415;47.870;16.058;2023-06-22T04:53:23;97566.06;;;19.11;100.00
49515;BME280;35415;47.870;16.058;2023-06-22T04:53:34;97586.34;;;19.27;100.00
49515;BME280;35415;47.870;16.058;2023-06-22T04:58:59;97592.59;;;19.28;100.00
49515;BME280;35415;47.870;16.058;2023-06-22T05:01:31;97601.56;;;19.28;100.00
49515;BME280;35415;47.870;16.058;2023-06-22T05:04:02;97598.53;;;19.30;100.00
49515;BME280;35415;47.870;16.058;2023-06-22T05:06:49;97595.81;;;19.30;100.00
49515;BME280;35415;47.870;16.058;2023-06-22T05:12:07;97604.19;;;19.33;100.00
49515;BME280;35415;47.870;16.058;2023-06-22T05:14:39;97595.69;;;19.35;100.00
49515;BME280;35415;47.870;16.058;2023-06-22T05:17:09;97607.88;;;19.37;100.00
49515;BME280;35415;47.870;16.058;2023-06-22T05:19:49;97605.63;;;19.39;100.00
49515;BME280;35415;47.870;16.058;2023-06-22T05:22:38;97597.63;;;19.43;100.00
49515;BME280;35415;47.870;16.058;2023-06-22T06:08:42;97618.47;;;20.13;100.00
49515;BME280;35415;47.870;16.058;2023-06-22T06:11:12;97619.13;;;20.19;100.00
49515;BME280;35415;47.870;16.058;2023-06-22T06:13:39;97611.09;;;20.22;100.00
49515;BME280;35415;47.870;16.058;2023-06-22T06:16:06;97608.19;;;20.27;100.00
49515;BME280;35415;47.870;16.058;2023-06-22T06:18:50;97608.84;;;20.33;100.00
49515;BME280;35415;47.870;16.058;2023-06-22T06:21:20;97596.63;;;20.39;100.00
49515;BME280;35415;47.870;16.058;2023-06-22T06:23:53;97603.56;;;20.45;100.00
49515;BME280;35415;47.870;16.058;2023-06-22T06:26:26;97594.88;;;20.52;100.00
49515;BME280;35415;47.870;16.058;2023-06-22T06:28:57;97598.25;;;20.57;100.00
49515;BME280;35415;47.870;16.058;2023-06-22T06:31:26;97593.06;;;20.64;100.00
49515;BME280;35415;47.870;16.058;2023-06-22T06:33:54;97596.13;;;20.71;100.00
49515;BME280;35415;47.870;16.058;2023-06-22T06:36:21;97576.47;;;20.78;100.00
49515;BME280;35415;47.870;16.058;2023-06-22T06:38:51;97578.72;;;20.85;100.00
49515;BME280;35415;47.870;16.058;2023-06-22T06:41:25;97573.56;;;20.92;100.00
49515;BME280;35415;47.870;16.058;2023-06-22T06:43:58;97566.75;;;20.98;100.00
49515;BME280;35415;47.870;16.058;2023-06-22T06:46:28;97566.28;;;21.05;100.00
49515;BME280;35415;47.870;16.058;2023-06-22T06:49:01;97542.94;;;20.98;100.00
49515;BME280;35415;47.870;16.058;2023-06-22T06:51:28;97562.19;;;21.19;100.00
49515;BME280;35415;47.870;16.058;2023-06-22T06:53:56;97557.03;;;21.26;100.00
49515;BME280;35415;47.870;16.058;2023-06-22T06:56:29;97563.59;;;21.34;100.00
49515;BME280;35415;47.870;16.058;2023-06-22T06:58:58;97554.53;;;21.42;100.00
49515;BME280;35415;47.870;16.058;2023-06-22T07:01:28;97555.59;;;21.50;100.00
49515;BME280;35415;47.870;16.058;2023-06-22T07:03:58;97547.34;;;21.58;100.00
49515;BME280;35415;47.870;16.058;2023-06-22T07:06:30;97544.56;;;21.67;100.00
49515;BME280;35415;47.870;16.058;2023-06-22T07:09:19;97530.47;;;21.77;100.00
49515;BME280;35415;47.870;16.058;2023-06-22T07:11:49;97528.59;;;21.90;100.00
49515;BME280;35415;47.870;16.058;2023-06-22T07:14:17;97534.47;;;22.01;100.00
49515;BME280;35415;47.870;16.058;2023-06-22T07:16:44;97535.00;;;22.15;100.00
49515;BME280;35415;47.870;16.058;2023-06-22T07:19:11;97531.53;;;22.27;100.00
49515;BME280;35415;47.870;16.058;2023-06-22T07:21:38;97536.25;;;22.38;100.00
49515;BME280;35415;47.870;16.058;2023-06-22T07:24:22;97533.53;;;22.50;100.00
49515;BME280;35415;47.870;16.058;2023-06-22T07:26:57;97530.47;;;22.64;100.00
49515;BME280;35415;47.870;16.058;2023-06-22T07:29:47;97533.72;;;22.78;100.00
49515;BME280;35415;47.870;16.058;2023-06-22T07:32:14;97531.84;;;22.91;100.00
49515;BME280;35415;47.870;16.058;2023-06-22T07:34:43;97529.09;;;23.03;100.00
49515;BME280;35415;47.870;16.058;2023-06-22T07:37:10;97528.28;;;23.15;100.00
49515;BME280;35415;47.870;16.058;2023-06-22T07:39:50;97525.56;;;23.27;100.00
49515;BME280;35415;47.870;16.058;2023-06-22T07:42:28;97527.50;;;23.39;100.00
49515;BME280;35415;47.870;16.058;2023-06-22T07:45:00;97524.72;;;23.51;100.00
49515;BME280;35415;47.870;16.058;2023-06-22T07:47:49;97517.28;;;23.64;100.00
49515;BME280;35415;47.870;16.058;2023-06-22T07:53:01;97521.19;;;23.75;100.00
49515;BME280;35415;47.870;16.058;2023-06-22T08:04:47;97529.56;;;24.35;100.00
49515;BME280;35415;47.870;16.058;2023-06-22T08:13:48;97532.81;;;24.68;100.00
49515;BME280;35415;47.870;16.058;2023-06-22T08:16:22;97543.31;;;24.78;100.00
49515;BME280;35415;47.870;16.058;2023-06-22T08:19:17;97541.66;;;24.89;100.00
49515;BME280;35415;47.870;16.058;2023-06-22T09:28:20;97515.09;;;27.75;100.00
49515;BME280;35415;47.870;16.058;2023-06-22T09:31:06;97519.22;;;27.88;100.00
49515;BME280;35415;47.870;16.058;2023-06-22T09:34:40;97505.94;;;28.01;100.00
49515;BME280;35415;47.870;16.058;2023-06-22T09:36:41;97507.72;;;28.16;100.00
49515;BME280;35415;47.870;16.058;2023-06-22T09:39:37;97511.09;;;28.32;100.00
49515;BME280;35415;47.870;16.058;2023-06-22T09:42:22;97516.81;;;28.50;100.00
49515;BME280;35415;47.870;16.058;2023-06-22T09:45:02;97522.50;;;28.64;100.00
49515;BME280;35415;47.870;16.058;2023-06-22T09:47:45;97513.19;;;28.80;99.09
49515;BME280;35415;47.870;16.058;2023-06-22T09:50:25;97507.81;;;28.94;98.20
49515;BME280;35415;47.870;16.058;2023-06-22T09:53:31;97506.38;;;29.11;98.02
49515;BME280;35415;47.870;16.058;2023-06-22T09:59:28;97507.78;;;29.42;95.96
49515;BME280;35415;47.870;16.058;2023-06-22T10:02:11;97506.31;;;29.55;95.95
49515;BME280;35415;47.870;16.058;2023-06-22T10:04:40;97502.81;;;29.69;95.44
49515;BME280;35415;47.870;16.058;2023-06-22T10:07:13;97500.91;;;29.80;94.80
49515;BME280;35415;47.870;16.058;2023-06-22T10:12:32;97500.28;;;30.08;94.15
49515;BME280;35415;47.870;16.058;2023-06-22T10:15:06;97499.53;;;30.21;93.80
49515;BME280;35415;47.870;16.058;2023-06-22T10:17:36;97498.78;;;30.35;93.01
49515;BME280;35415;47.870;16.058;2023-06-22T10:20:04;97500.41;;;30.47;91.89
49515;BME280;35415;47.870;16.058;2023-06-22T10:22:38;97493.72;;;30.59;91.56
49515;BME280;35415;47.870;16.058;2023-06-22T10:25:10;97496.91;;;30.71;91.11
49515;BME280;35415;47.870;16.058;2023-06-22T10:27:38;97501.31;;;30.83;90.41
49515;BME280;35415;47.870;16.058;2023-06-22T10:30:11;97505.28;;;30.93;90.22
49515;BME280;35415;47.870;16.058;2023-06-22T10:32:43;97500.91;;;31.06;89.90
49515;BME280;35415;47.870;16.058;2023-06-22T10:35:10;97494.19;;;31.18;89.16
49515;BME280;35415;47.870;16.058;2023-06-22T10:37:39;97496.56;;;31.30;88.50
49515;BME280;35415;47.870;16.058;2023-06-22T10:40:19;97500.53;;;31.43;88.21
49515;BME280;35415;47.870;16.058;2023-06-22T10:42:46;97494.53;;;31.55;87.48
49515;BME280;35415;47.870;16.058;2023-06-22T10:45:29;97496.91;;;31.67;86.38
49515;BME280;35415;47.870;16.058;2023-06-22T10:47:59;97497.72;;;31.79;85.72
49515;BME280;35415;47.870;16.058;2023-06-22T10:50:26;97473.09;;;31.77;84.19
49515;BME280;35415;47.870;16.058;2023-06-22T10:52:57;97494.47;;;31.98;83.89
49515;BME280;35415;47.870;16.058;2023-06-22T10:55:26;97492.03;;;32.07;82.70
49515;BME280;35415;47.870;16.058;2023-06-22T10:57:55;97460.63;;;32.07;82.96
49515;BME280;35415;47.870;16.058;2023-06-22T11:00:31;97479.66;;;32.29;81.51
49515;BME280;35415;47.870;16.058;2023-06-22T11:03:01;97473.22;;;32.40;80.65
49515;BME280;35415;47.870;16.058;2023-06-22T11:05:44;97475.56;;;32.48;79.25
49515;BME280;35415;47.870;16.058;2023-06-22T11:08:13;97477.47;;;32.58;78.88
49515;BME280;35415;47.870;16.058;2023-06-22T11:10:55;97460.72;;;32.66;77.83
49515;BME280;35415;47.870;16.058;2023-06-22T11:13:22;97475.38;;;32.73;76.69
49515;BME280;35415;47.870;16.058;2023-06-22T11:15:50;97472.97;;;32.79;76.88
49515;BME280;35415;47.870;16.058;2023-06-22T11:18:19;97457.41;;;32.85;76.85
49515;BME280;35415;47.870;16.058;2023-06-22T11:20:52;97456.56;;;32.91;76.19
49515;BME280;35415;47.870;16.058;2023-06-22T11:23:23;97455.72;;;32.98;75.75
49515;BME280;35415;47.870;16.058;2023-06-22T11:25:53;97453.66;;;33.06;75.89
49515;BME280;35415;47.870;16.058;2023-06-22T11:31:28;97447.97;;;33.20;74.90
49515;BME280;35415;47.870;16.058;2023-06-22T11:56:29;97425.38;;;33.86;69.93
49515;BME280;35415;47.870;16.058;2023-06-22T12:01:39;97425.56;;;34.02;69.70
49515;BME280;35415;47.870;16.058;2023-06-22T12:04:07;97417.91;;;34.10;69.71
49515;BME280;35415;47.870;16.058;2023-06-22T12:06:53;97413.00;;;34.18;69.10
49515;BME280;35415;47.870;16.058;2023-06-22T12:14:54;97418.31;;;34.39;68.09
49515;BME280;35415;47.870;16.058;2023-06-22T12:17:35;97423.03;;;34.46;68.20
49515;BME280;35415;47.870;16.058;2023-06-22T12:20:03;97418.53;;;34.52;67.05
49515;BME280;35415;47.870;16.058;2023-06-22T12:22:37;97410.03;;;34.59;66.86
49515;BME280;35415;47.870;16.058;2023-06-22T12:25:07;97411.16;;;34.65;65.40
49515;BME280;35415;47.870;16.058;2023-06-22T12:27:34;97405.84;;;34.71;64.96
49515;BME280;35415;47.870;16.058;2023-06-22T12:30:04;97413.75;;;34.76;62.74
49515;BME280;35415;47.870;16.058;2023-06-22T12:32:32;97408.50;;;34.81;61.34
49515;BME280;35415;47.870;16.058;2023-06-22T12:35:02;97408.03;;;34.86;60.24
49515;BME280;35415;47.870;16.058;2023-06-22T12:37:29;97405.53;;;34.92;59.91
49515;BME280;35415;47.870;16.058;2023-06-22T12:39:57;97409.44;;;34.98;59.67
49515;BME280;35415;47.870;16.058;2023-06-22T12:42:24;97402.56;;;35.03;59.60
49515;BME280;35415;47.870;16.058;2023-06-22T12:45:13;97396.81;;;35.10;59.29
49515;BME280;35415;47.870;16.058;2023-06-22T12:47:56;97393.91;;;35.17;59.15
49515;BME280;35415;47.870;16.058;2023-06-22T12:50:23;97399.78;;;35.22;58.46
49515;BME280;35415;47.870;16.058;2023-06-22T12:55:40;97398.03;;;35.32;57.78
49515;BME280;35415;47.870;16.058;2023-06-22T12:58:56;97395.53;;;35.38;57.90
49515;BME280;35415;47.870;16.058;2023-06-22T13:01:31;97381.44;;;35.45;57.67
49515;BME280;35415;47.870;16.058;2023-06-22T17:50:08;97151.97;;;31.85;59.54
49515;BME280;35415;47.870;16.058;2023-06-22T17:56:10;97143.41;;;31.62;60.19
49515;BME280;35415;47.870;16.058;2023-06-22T17:59:03;97137.91;;;31.51;60.41
49515;BME280;35415;47.870;16.058;2023-06-22T18:23:43;97145.81;;;30.83;63.70
49515;BME280;35415;47.870;16.058;2023-06-22T19:30:36;97149.44;;;28.95;72.17
49515;BME280;35415;47.870;16.058;2023-06-22T19:33:06;97160.47;;;28.88;73.31
49515;BME280;35415;47.870;16.058;2023-06-22T19:35:38;97170.69;;;28.80;72.86
49515;BME280;35415;47.870;16.058;2023-06-22T19:38:14;97174.25;;;28.73;73.79
49515;BME280;35415;47.870;16.058;2023-06-22T19:40:53;97166.28;;;28.65;74.23
49515;BME280;35415;47.870;16.058;2023-06-22T19:43:29;97162.69;;;28.57;74.67
49515;BME280;35415;47.870;16.058;2023-06-22T19:46:07;97160.28;;;28.49;75.34
49515;BME280;35415;47.870;16.058;2023-06-22T19:48:35;97162.63;;;28.43;75.86
49515;BME280;35415;47.870;16.058;2023-06-22T19:51:09;97155.84;;;28.37;76.24
49515;BME280;35415;47.870;16.058;2023-06-22T19:53:47;97152.66;;;28.31;76.21
49515;BME280;35415;47.870;16.058;2023-06-22T19:56:19;97141.09;;;28.18;76.47
49515;BME280;35415;47.870;16.058;2023-06-22T19:58:49;97146.25;;;28.20;76.76
49515;BME280;35415;47.870;16.058;2023-06-22T20:11:01;97144.91;;;27.96;78.77
49515;BME280;35415;47.870;16.058;2023-06-22T20:13:51;97155.53;;;27.91;78.23
49515;BME280;35415;47.870;16.058;2023-06-22T20:16:23;97174.44;;;27.85;78.64
49515;BME280;35415;47.870;16.058;2023-06-22T20:19:16;97175.19;;;27.78;80.06
49515;BME280;35415;47.870;16.058;2023-06-22T20:21:50;97159.34;;;27.72;80.33
49515;BME280;35415;47.870;16.058;2023-06-22T20:24:21;97137.16;;;27.65;79.71
49515;BME280;35415;47.870;16.058;2023-06-22T20:27:19;97130.78;;;27.57;80.60
49515;BME280;35415;47.870;16.058;2023-06-22T20:29:46;97130.69;;;27.50;81.50
49515;BME280;35415;47.870;16.058;2023-06-22T20:32:19;97127.50;;;27.44;81.80
49515;BME280;35415;47.870;16.058;2023-06-22T20:35:01;97125.88;;;27.40;81.86
49515;BME280;35415;47.870;16.058;2023-06-22T20:37:36;97113.19;;;27.35;81.62
49515;BME280;35415;47.870;16.058;2023-06-22T20:40:27;97103.31;;;27.31;81.60
49515;BME280;35415;47.870;16.058;2023-06-22T20:43:12;97093.03;;;27.27;82.51
49515;BME280;35415;47.870;16.058;2023-06-22T20:45:47;97085.09;;;27.22;83.04
49515;BME280;35415;47.870;16.058;2023-06-22T20:48:45;97071.63;;;27.17;83.53
49515;BME280;35415;47.870;16.058;2023-06-22T20:51:16;97067.66;;;27.15;83.68
49515;BME280;35415;47.870;16.058;2023-06-22T20:53:51;97060.13;;;27.12;83.97
49515;BME280;35415;47.870;16.058;2023-06-22T20:56:19;97049.06;;;27.08;83.77
49515;BME280;35415;47.870;16.058;2023-06-22T20:59:01;97041.56;;;27.05;83.86
49515;BME280;35415;47.870;16.058;2023-06-22T21:01:28;97032.41;;;27.01;84.35
49515;BME280;35415;47.870;16.058;2023-06-22T21:03:58;97020.94;;;26.99;84.48
49515;BME280;35415;47.870;16.058;2023-06-22T21:06:26;97010.66;;;26.96;84.80
49515;BME280;35415;47.870;16.058;2023-06-22T21:08:53;97018.53;;;26.94;85.33
49515;BME280;35415;47.870;16.058;2023-06-22T21:11:21;97022.84;;;26.91;84.88
49515;BME280;35415;47.870;16.058;2023-06-22T21:17:04;97011.72;;;26.84;85.54
49515;BME280;35415;47.870;16.058;2023-06-22T21:19:36;97005.78;;;26.79;85.39
49515;BME280;35415;47.870;16.058;2023-06-22T21:25:19;96957.97;;;26.67;86.54
49515;BME280;35415;47.870;16.058;2023-06-22T21:27:58;96969.34;;;26.62;87.03
49515;BME280;35415;47.870;16.058;2023-06-22T21:30:43;96976.03;;;26.58;87.10
49515;BME280;35415;47.870;16.058;2023-06-22T21:33:33;96970.47;;;26.54;87.26
49515;BME280;35415;47.870;16.058;2023-06-22T21:36:04;96952.28;;;26.50;88.19
49515;BME280;35415;47.870;16.058;2023-06-22T21:38:40;96957.78;;;26.46;89.01
49515;BME280;35415;47.870;16.058;2023-06-22T21:41:09;96962.06;;;26.44;88.14
49515;BME280;35415;47.870;16.058;2023-06-22T21:43:37;96954.56;;;26.41;88.83
49515;BME280;35415;47.870;16.058;2023-06-22T21:46:10;96937.16;;;26.36;88.77
49515;BME280;35415;47.870;16.058;2023-06-22T21:48:45;96944.59;;;26.32;89.16
49515;BME280;35415;47.870;16.058;2023-06-22T21:51:12;96942.59;;;26.29;89.32
49515;BME280;35415;47.870;16.058;2023-06-22T21:53:40;96929.56;;;26.26;89.92
49515;BME280;35415;47.870;16.058;2023-06-22T21:56:07;96917.72;;;26.22;90.90
49515;BME280;35415;47.870;16.058;2023-06-22T21:58:34;96922.00;;;26.20;91.30
49515;BME280;35415;47.870;16.058;2023-06-22T22:01:03;96909.78;;;26.17;90.72
49515;BME280;35415;47.870;16.058;2023-06-22T22:03:30;96914.06;;;26.15;90.78
49515;BME280;35415;47.870;16.058;2023-06-22T22:11:47;96893.06;;;26.03;91.80
49515;BME280;35415;47.870;16.058;2023-06-22T22:14:16;96888.69;;;25.98;91.78
49515;BME280;35415;47.870;16.058;2023-06-22T22:16:45;96888.66;;;25.95;91.62
49515;BME280;35415;47.870;16.058;2023-06-22T22:19:15;96893.34;;;25.91;92.01
49515;BME280;35415;47.870;16.058;2023-06-22T22:21:43;96882.31;;;25.87;92.56
49515;BME280;35415;47.870;16.058;2023-06-22T22:24:13;96881.44;;;25.83;92.68
49515;BME280;35415;47.870;16.058;2023-06-22T22:26:42;96888.88;;;25.79;92.87
49515;BME280;35415;47.870;16.058;2023-06-22T22:29:20;96884.91;;;25.76;93.28
